Time;durP1;ratioP1;P1;durP2;ratioP2;P2;SDS_P1;SDS_P2;PMS_P1;PMS_P2;Temp;Humidity;BMP_temperature;BMP_pressure;BME280_temperature;BME280_humidity;BME280_pressure;Samples;Min_cycle;Max_cycle;Signal;HPM_P1;HPM_P2
2022/07/26 00:01:03;;;;;;;11.60;2.00;;;16.20;64.30;;;;;;4989945;28;20568;-70
2022/07/26 00:03:29;;;;;;;6.53;1.40;;;16.20;64.50;;;;;;4988700;28;20084;-75
2022/07/26 00:05:56;;;;;;;5.32;1.95;;;16.20;64.50;;;;;;4989733;28;20053;-73
2022/07/26 00:08:23;;;;;;;4.78;2.10;;;16.20;64.30;;;;;;4988490;28;20080;-69
2022/07/26 00:10:50;;;;;;;3.05;1.30;;;16.20;64.10;;;;;;4989603;28;20536;-72
2022/07/26 00:13:19;;;;;;;6.13;1.70;;;16.10;63.90;;;;;;4988631;28;20058;-71
2022/07/26 00:15:49;;;;;;;3.95;1.45;;;16.10;63.70;;;;;;4988884;28;20034;-67
2022/07/26 00:18:16;;;;;;;5.03;1.30;;;16.10;63.60;;;;;;4990274;28;20018;-70
2022/07/26 00:20:45;;;;;;;1.77;1.30;;;16.10;63.60;;;;;;4988606;28;20018;-75
2022/07/26 00:23:12;;;;;;;3.95;1.33;;;16.10;63.50;;;;;;4988385;28;20080;-73
2022/07/26 00:25:38;;;;;;;6.30;1.50;;;16.10;63.60;;;;;;4987980;28;20026;-73
2022/07/26 00:28:05;;;;;;;4.93;1.33;;;16.10;63.80;;;;;;4989019;28;20509;-71
2022/07/26 00:30:32;;;;;;;1.48;1.23;;;16.10;63.70;;;;;;4989200;28;20022;-71
2022/07/26 00:32:59;;;;;;;2.47;1.25;;;16.10;63.80;;;;;;4987291;28;20030;-72
2022/07/26 00:35:25;;;;;;;12.85;2.05;;;16.10;63.80;;;;;;4989625;28;20109;-73
2022/07/26 00:37:52;;;;;;;4.20;1.63;;;16.10;63.60;;;;;;4988131;28;20505;-72
2022/07/26 00:40:19;;;;;;;2.92;1.40;;;16.00;63.50;;;;;;4988828;28;20385;-72
2022/07/26 00:42:45;;;;;;;2.60;1.45;;;16.00;63.30;;;;;;4987569;28;20113;-74
2022/07/26 00:45:12;;;;;;;6.80;1.58;;;16.00;63.30;;;;;;4989745;28;20096;-74
2022/07/26 00:47:39;;;;;;;7.25;2.15;;;16.00;63.30;;;;;;4987300;28;20026;-71
2022/07/26 00:50:09;;;;;;;14.45;1.70;;;16.00;64.00;;;;;;4988490;28;20023;-74
2022/07/26 00:52:36;;;;;;;6.75;1.88;;;16.00;64.90;;;;;;4988810;28;20022;-72
2022/07/26 00:55:03;;;;;;;9.65;2.00;;;16.00;65.30;;;;;;4985978;28;20389;-71
2022/07/26 00:57:30;;;;;;;9.88;2.00;;;16.00;65.60;;;;;;4989526;28;20498;-74
2022/07/26 00:59:59;;;;;;;6.20;2.67;;;16.00;65.20;;;;;;4987324;28;20010;-70
2022/07/26 01:02:26;;;;;;;8.68;1.55;;;16.00;65.60;;;;;;4988345;28;20041;-75
2022/07/26 01:04:52;;;;;;;7.82;1.58;;;16.00;65.70;;;;;;4987667;28;20018;-74
2022/07/26 01:07:19;;;;;;;7.07;1.52;;;16.00;65.60;;;;;;4987081;28;20025;-74
2022/07/26 01:09:46;;;;;;;5.43;1.70;;;16.00;65.70;;;;;;4988489;28;20018;-72
2022/07/26 01:12:12;;;;;;;5.75;1.17;;;16.00;65.30;;;;;;4991457;28;20038;-72
2022/07/26 01:14:43;;;;;;;7.55;1.27;;;16.00;65.10;;;;;;4993289;28;20026;-68
2022/07/26 01:17:10;;;;;;;15.70;1.63;;;16.00;64.60;;;;;;4990732;28;20492;-68
2022/07/26 01:19:37;;;;;;;15.38;1.95;;;16.00;64.80;;;;;;4993390;28;20030;-71
2022/07/26 01:22:03;;;;;;;12.38;1.88;;;16.00;65.50;;;;;;4991534;28;20078;-68
2022/07/26 01:24:30;;;;;;;4.75;1.35;;;16.00;65.60;;;;;;4993489;28;20485;-74
2022/07/26 01:26:56;;;;;;;8.35;1.63;;;16.00;65.10;;;;;;4991818;28;20014;-75
2022/07/26 01:29:24;;;;;;;5.68;1.30;;;16.00;64.80;;;;;;4991864;28;20073;-73
2022/07/26 01:31:51;;;;;;;4.57;1.42;;;15.90;64.80;;;;;;4991860;28;20022;-72
2022/07/26 01:34:18;;;;;;;1.20;1.00;;;15.90;64.30;;;;;;4990698;28;20085;-75
2022/07/26 01:36:45;;;;;;;14.75;1.42;;;15.90;64.10;;;;;;4992301;28;20041;-68
2022/07/26 01:39:11;;;;;;;7.50;1.58;;;15.90;63.80;;;;;;4991676;28;20026;-67
2022/07/26 01:41:38;;;;;;;7.85;1.40;;;15.90;63.80;;;;;;4991683;28;20078;-71
2022/07/26 01:44:06;;;;;;;3.38;1.23;;;15.90;63.70;;;;;;4991155;28;20359;-72
2022/07/26 01:46:34;;;;;;;6.32;2.67;;;15.90;63.50;;;;;;4990834;28;20093;-70
2022/07/26 01:49:00;;;;;;;2.60;1.23;;;15.80;63.40;;;;;;4992466;28;20030;-67
2022/07/26 01:51:27;;;;;;;3.30;1.50;;;15.80;63.30;;;;;;4991148;28;20034;-70
2022/07/26 01:53:54;;;;;;;3.08;1.42;;;15.80;63.40;;;;;;4991492;28;20018;-71
2022/07/26 01:56:20;;;;;;;6.38;1.30;;;15.80;63.60;;;;;;4989548;28;20030;-70
2022/07/26 01:58:47;;;;;;;2.50;1.10;;;15.80;63.80;;;;;;4992195;28;20030;-74
2022/07/26 02:01:13;;;;;;;2.65;1.27;;;15.70;64.00;;;;;;4990840;28;20019;-70
2022/07/26 02:03:40;;;;;;;3.38;1.23;;;15.80;64.10;;;;;;4992307;28;20014;-70
2022/07/26 02:06:07;;;;;;;2.80;1.60;;;15.80;64.00;;;;;;4991838;28;20057;-69
2022/07/26 02:08:33;;;;;;;2.63;1.13;;;15.70;64.20;;;;;;4991149;28;20019;-69
2022/07/26 02:10:59;;;;;;;2.17;1.42;;;15.70;64.30;;;;;;4992392;28;20149;-70
2022/07/26 02:13:31;;;;;;;8.40;1.27;;;15.60;64.20;;;;;;4990885;28;20026;-68
2022/07/26 02:15:58;;;;;;;3.03;1.38;;;15.60;64.40;;;;;;4991722;28;20382;-72
2022/07/26 02:18:27;;;;;;;6.18;1.40;;;15.60;64.30;;;;;;4990599;28;20525;-73
2022/07/26 02:20:53;;;;;;;2.60;1.33;;;15.60;64.20;;;;;;4991070;28;20030;-71
2022/07/26 02:23:21;;;;;;;1.90;1.05;;;15.60;64.20;;;;;;4990370;28;20046;-71
2022/07/26 02:25:48;;;;;;;3.78;1.10;;;15.60;64.30;;;;;;4991429;28;20022;-69
2022/07/26 02:28:15;;;;;;;3.55;1.42;;;15.50;64.10;;;;;;4992066;28;20425;-68
2022/07/26 02:30:43;;;;;;;1.45;1.08;;;15.50;64.30;;;;;;4990195;28;20114;-73
2022/07/26 02:33:10;;;;;;;2.65;1.08;;;15.50;64.30;;;;;;4990371;28;20023;-72
2022/07/26 02:35:37;;;;;;;4.20;1.27;;;15.50;64.50;;;;;;4989416;28;20042;-67
2022/07/26 02:38:06;;;;;;;2.83;1.30;;;15.40;64.60;;;;;;4991595;28;20030;-72
2022/07/26 02:40:33;;;;;;;5.35;2.10;;;15.40;64.50;;;;;;4989118;28;20026;-71
2022/07/26 02:43:00;;;;;;;4.05;1.33;;;15.40;64.30;;;;;;4990909;28;20022;-72
2022/07/26 02:45:27;;;;;;;3.67;1.38;;;15.40;64.20;;;;;;4991084;28;20034;-75
2022/07/26 02:47:55;;;;;;;5.90;1.50;;;15.40;64.20;;;;;;4991138;28;20018;-74
2022/07/26 02:50:23;;;;;;;6.15;1.10;;;15.40;64.40;;;;;;4989594;28;20103;-68
2022/07/26 02:52:51;;;;;;;1.80;1.52;;;15.40;64.70;;;;;;4985636;28;20046;-73
2022/07/26 02:55:21;;;;;;;7.43;2.15;;;15.40;65.20;;;;;;4991417;28;20018;-75
2022/07/26 02:57:48;;;;;;;17.30;3.63;;;15.40;64.40;;;;;;4991056;28;20030;-77
2022/07/26 03:00:20;;;;;;;24.23;9.10;;;15.40;66.10;;;;;;4989010;28;20109;-74
2022/07/26 03:02:48;;;;;;;25.45;7.60;;;15.30;66.40;;;;;;4990589;28;20444;-74
2022/07/26 03:05:14;;;;;;;12.43;3.22;;;15.30;66.00;;;;;;4989343;28;20015;-72
2022/07/26 03:07:41;;;;;;;3.33;2.05;;;15.30;65.50;;;;;;4991622;28;20022;-77
2022/07/26 03:10:08;;;;;;;11.77;2.42;;;15.30;64.90;;;;;;4990315;28;20398;-71
2022/07/26 03:12:35;;;;;;;17.17;3.15;;;15.30;64.40;;;;;;4990856;28;20045;-75
2022/07/26 03:15:01;;;;;;;1.35;1.20;;;15.20;64.30;;;;;;4989667;28;20050;-67
2022/07/26 03:17:28;;;;;;;2.90;1.65;;;15.20;64.40;;;;;;4990291;28;20037;-71
2022/07/26 03:19:54;;;;;;;6.00;1.40;;;15.20;63.20;;;;;;4990719;28;20841;-71
2022/07/26 03:22:21;;;;;;;1.52;1.08;;;15.20;63.00;;;;;;4988208;28;20141;-72
2022/07/26 03:24:47;;;;;;;2.83;0.90;;;15.10;62.80;;;;;;4990792;28;20616;-71
2022/07/26 03:27:14;;;;;;;5.60;1.40;;;15.10;62.40;;;;;;4989298;28;20787;-72
2022/07/26 03:29:40;;;;;;;3.13;0.95;;;15.10;61.70;;;;;;4991050;28;20014;-71
2022/07/26 03:32:07;;;;;;;5.18;0.90;;;15.10;61.70;;;;;;4987026;28;20027;-71
2022/07/26 03:34:34;;;;;;;1.52;0.95;;;15.10;61.70;;;;;;4989393;28;20022;-72
2022/07/26 03:37:00;;;;;;;4.50;1.60;;;15.10;61.50;;;;;;4989767;28;20043;-75
2022/07/26 03:39:27;;;;;;;1.35;0.82;;;15.10;61.60;;;;;;4990113;28;20022;-69
2022/07/26 03:41:53;;;;;;;6.72;1.17;;;15.10;61.60;;;;;;4989519;28;20117;-76
2022/07/26 03:44:20;;;;;;;12.18;1.65;;;15.00;61.60;;;;;;4988419;28;20018;-73
2022/07/26 03:46:46;;;;;;;17.77;1.58;;;15.10;61.80;;;;;;4989182;28;20482;-69
2022/07/26 03:49:13;;;;;;;9.38;5.32;;;15.00;62.00;;;;;;4989015;28;20599;-73
2022/07/26 03:51:39;;;;;;;47.97;22.48;;;15.00;62.30;;;;;;4989287;28;20022;-69
2022/07/26 03:54:06;;;;;;;5.60;3.65;;;15.00;62.20;;;;;;5020041;28;20034;-69
2022/07/26 03:56:32;;;;;;;11.70;3.17;;;15.00;61.50;;;;;;4989279;28;20096;-74
2022/07/26 03:59:09;;;;;;;8.43;2.28;;;14.90;62.50;;;;;;4989798;28;20093;-70
2022/07/26 04:01:40;;;;;;;13.55;2.80;;;14.80;63.90;;;;;;4989514;28;20026;-70
2022/07/26 04:04:08;;;;;;;6.38;2.08;;;14.80;64.00;;;;;;4990446;28;20058;-71
2022/07/26 04:06:35;;;;;;;3.13;1.95;;;14.80;63.80;;;;;;4987101;28;21862;-68
2022/07/26 04:09:03;;;;;;;2.80;1.58;;;14.80;63.90;;;;;;4988625;28;20390;-68
2022/07/26 04:11:29;;;;;;;9.38;2.10;;;14.80;63.90;;;;;;4988860;28;20026;-72
2022/07/26 04:13:57;;;;;;;18.92;2.40;;;14.80;63.90;;;;;;4989222;28;20372;-71
2022/07/26 04:16:24;;;;;;;18.58;5.22;;;14.70;64.00;;;;;;4989033;28;20490;-70
2022/07/26 04:18:51;;;;;;;17.35;6.07;;;14.70;64.20;;;;;;4988905;28;20060;-70
2022/07/26 04:21:18;;;;;;;10.07;5.22;;;14.70;64.20;;;;;;4989993;28;20149;-71
2022/07/26 04:23:44;;;;;;;4.35;3.00;;;14.70;64.00;;;;;;4988430;28;20085;-71
2022/07/26 04:26:13;;;;;;;4.05;2.95;;;14.70;64.00;;;;;;4990426;28;20018;-69
2022/07/26 04:28:40;;;;;;;6.13;2.15;;;14.70;63.90;;;;;;4987890;28;20057;-71
2022/07/26 04:31:07;;;;;;;1.90;1.23;;;14.70;63.70;;;;;;4988109;28;20148;-73
2022/07/26 04:33:34;;;;;;;3.05;1.77;;;14.70;63.50;;;;;;4989307;28;20069;-70
2022/07/26 04:36:02;;;;;;;6.78;1.20;;;14.70;63.30;;;;;;4987805;28;20034;-70
2022/07/26 04:38:28;;;;;;;4.35;1.75;;;14.70;63.20;;;;;;4988859;28;20033;-72
2022/07/26 04:40:56;;;;;;;8.52;1.77;;;14.70;63.20;;;;;;4989108;28;20053;-72
2022/07/26 04:43:24;;;;;;;2.92;1.30;;;14.70;63.00;;;;;;4989119;28;20029;-72
2022/07/26 04:45:50;;;;;;;8.45;1.95;;;14.70;62.80;;;;;;4987210;28;20028;-72
2022/07/26 04:48:17;;;;;;;9.43;1.52;;;14.70;62.60;;;;;;4987281;28;20177;-77
2022/07/26 04:50:43;;;;;;;3.22;1.83;;;14.70;62.30;;;;;;4989225;28;20030;-76
2022/07/26 04:53:10;;;;;;;4.38;2.17;;;14.60;62.20;;;;;;4988689;28;20116;-75
2022/07/26 04:55:37;;;;;;;6.13;1.38;;;14.60;62.20;;;;;;4989383;28;20189;-77
2022/07/26 04:58:04;;;;;;;3.13;1.30;;;14.60;62.40;;;;;;4987955;28;20038;-78
2022/07/26 05:00:30;;;;;;;3.53;1.27;;;14.60;62.70;;;;;;4989288;28;20219;-76
2022/07/26 05:02:59;;;;;;;3.30;1.20;;;14.50;62.80;;;;;;4987901;28;20022;-77
2022/07/26 05:05:29;;;;;;;3.58;1.27;;;14.50;62.70;;;;;;4989444;28;20045;-77
2022/07/26 05:07:58;;;;;;;1.95;1.13;;;14.50;63.00;;;;;;4988608;28;20023;-77
2022/07/26 05:10:34;;;;;;;1.98;1.15;;;14.50;63.00;;;;;;4988428;28;20026;-75
2022/07/26 05:13:06;;;;;;;2.55;1.63;;;14.50;63.20;;;;;;4988801;28;20026;-78
2022/07/26 05:15:35;;;;;;;9.68;2.15;;;14.50;63.50;;;;;;4985416;28;20034;-77
2022/07/26 05:18:04;;;;;;;4.53;1.65;;;14.50;63.80;;;;;;4989281;28;20489;-70
2022/07/26 05:20:31;;;;;;;3.95;2.15;;;14.50;64.00;;;;;;4987564;28;20022;-79
2022/07/26 05:22:58;;;;;;;4.10;1.80;;;14.50;63.90;;;;;;4988458;28;20038;-79
2022/07/26 05:25:25;;;;;;;5.82;2.50;;;14.40;63.90;;;;;;4988924;28;20425;-79
2022/07/26 05:27:52;;;;;;;3.30;1.98;;;14.40;64.00;;;;;;4988464;28;20027;-71
2022/07/26 05:30:19;;;;;;;7.40;1.95;;;14.40;64.00;;;;;;4989399;28;20014;-72
2022/07/26 05:32:45;;;;;;;2.28;1.65;;;14.40;64.20;;;;;;4987323;28;20073;-71
2022/07/26 05:35:12;;;;;;;2.40;2.10;;;14.40;64.30;;;;;;4989354;28;20033;-75
2022/07/26 05:37:39;;;;;;;3.60;2.22;;;14.40;64.20;;;;;;4986900;28;20097;-69
2022/07/26 05:40:06;;;;;;;5.65;2.40;;;14.40;64.20;;;;;;4988581;28;20026;-76
2022/07/26 05:42:32;;;;;;;2.75;2.17;;;14.40;64.20;;;;;;4987434;28;20030;-76
2022/07/26 05:44:59;;;;;;;2.35;1.88;;;14.40;64.20;;;;;;4988384;28;20015;-73
2022/07/26 05:47:25;;;;;;;6.60;2.00;;;14.40;64.20;;;;;;4989547;28;20072;-76
2022/07/26 05:49:52;;;;;;;5.40;2.15;;;14.40;64.40;;;;;;4987592;28;20122;-72
2022/07/26 05:52:18;;;;;;;4.47;2.00;;;14.40;64.30;;;;;;4989110;28;20018;-72
2022/07/26 05:54:45;;;;;;;4.13;1.75;;;14.40;64.30;;;;;;4988033;28;20021;-76
2022/07/26 05:57:11;;;;;;;8.45;2.22;;;14.40;64.40;;;;;;4989978;28;20046;-73
2022/07/26 05:59:38;;;;;;;2.50;1.70;;;14.30;64.50;;;;;;4989118;28;20027;-75
2022/07/26 06:02:07;;;;;;;2.75;1.65;;;14.30;64.70;;;;;;4991298;28;20042;-73
2022/07/26 06:04:34;;;;;;;5.47;2.30;;;14.40;64.60;;;;;;4991669;28;20037;-76
2022/07/26 06:07:01;;;;;;;3.17;1.98;;;14.30;64.50;;;;;;4990738;28;20022;-77
2022/07/26 06:09:27;;;;;;;4.85;1.88;;;14.30;64.40;;;;;;4992477;28;20038;-74
2022/07/26 06:11:54;;;;;;;3.10;1.92;;;14.30;64.20;;;;;;4990949;28;20367;-74
2022/07/26 06:14:21;;;;;;;3.47;1.52;;;14.30;64.10;;;;;;4989832;28;20358;-77
2022/07/26 06:16:48;;;;;;;2.08;1.55;;;14.30;64.30;;;;;;4988689;28;20036;-76
2022/07/26 06:19:14;;;;;;;3.45;1.67;;;14.30;64.30;;;;;;4992466;28;20018;-77
2022/07/26 06:21:41;;;;;;;14.75;2.05;;;14.30;64.30;;;;;;4991129;28;20034;-78
2022/07/26 06:24:08;;;;;;;3.92;1.70;;;14.30;64.50;;;;;;4991967;28;20038;-77
2022/07/26 06:26:34;;;;;;;2.00;1.10;;;14.30;64.40;;;;;;4992134;28;20028;-75
2022/07/26 06:29:01;;;;;;;5.22;1.95;;;14.30;64.50;;;;;;4990935;28;20038;-73
2022/07/26 06:31:27;;;;;;;3.85;1.75;;;14.30;64.60;;;;;;4991734;28;20557;-74
2022/07/26 06:33:54;;;;;;;3.38;1.63;;;14.30;64.70;;;;;;4990439;28;20056;-78
2022/07/26 06:36:21;;;;;;;4.35;1.85;;;14.30;65.20;;;;;;4989849;28;20085;-75
2022/07/26 06:38:47;;;;;;;3.58;1.90;;;14.30;65.40;;;;;;4989865;28;20101;-74
2022/07/26 06:41:14;;;;;;;2.05;1.60;;;14.30;65.50;;;;;;4990902;28;20023;-77
2022/07/26 06:43:40;;;;;;;4.20;1.55;;;14.40;65.40;;;;;;4991717;28;20036;-75
2022/07/26 06:46:07;;;;;;;13.95;2.30;;;14.40;65.90;;;;;;4990184;28;20025;-76
2022/07/26 06:48:34;;;;;;;8.13;2.03;;;14.40;66.40;;;;;;4992025;28;20114;-75
2022/07/26 06:51:01;;;;;;;4.70;2.47;;;14.40;66.40;;;;;;4987993;28;20041;-76
2022/07/26 06:53:27;;;;;;;4.10;2.22;;;14.40;66.40;;;;;;4991855;28;20026;-77
2022/07/26 06:55:54;;;;;;;6.03;1.83;;;14.40;66.60;;;;;;4990944;28;20038;-75
2022/07/26 06:58:20;;;;;;;3.58;1.95;;;14.40;66.60;;;;;;4990287;28;20035;-76
2022/07/26 07:00:47;;;;;;;6.32;2.22;;;14.40;66.90;;;;;;4990643;28;20101;-76
2022/07/26 07:03:13;;;;;;;4.85;1.63;;;14.40;67.10;;;;;;4990003;28;20057;-75
2022/07/26 07:05:39;;;;;;;1.90;1.70;;;14.40;67.00;;;;;;4991450;28;20022;-74
2022/07/26 07:08:06;;;;;;;5.47;1.85;;;14.40;67.00;;;;;;4989981;28;20385;-75
2022/07/26 07:10:33;;;;;;;4.30;2.50;;;14.40;66.90;;;;;;4990053;28;20583;-76
2022/07/26 07:12:59;;;;;;;7.72;2.30;;;14.50;67.20;;;;;;4989803;28;20018;-76
2022/07/26 07:15:25;;;;;;;4.00;1.77;;;14.50;67.50;;;;;;4990334;28;20034;-74
2022/07/26 07:17:52;;;;;;;2.10;1.63;;;14.50;67.50;;;;;;4991121;28;20470;-77
2022/07/26 07:20:19;;;;;;;3.78;1.80;;;14.50;67.90;;;;;;4990328;28;20035;-75
2022/07/26 07:22:45;;;;;;;3.28;1.75;;;14.50;68.00;;;;;;4990512;28;20497;-76
2022/07/26 07:25:12;;;;;;;3.83;1.40;;;14.60;67.90;;;;;;4989241;28;20041;-75
2022/07/26 07:27:38;;;;;;;3.15;1.55;;;14.60;67.90;;;;;;4990451;28;20392;-75
2022/07/26 07:30:07;;;;;;;6.80;3.67;;;14.60;68.10;;;;;;4989634;28;20102;-76
2022/07/26 07:32:33;;;;;;;6.47;2.28;;;14.70;68.10;;;;;;4990193;28;20061;-73
2022/07/26 07:35:00;;;;;;;3.50;2.47;;;14.70;68.30;;;;;;4989860;28;20029;-74
2022/07/26 07:37:26;;;;;;;4.82;2.28;;;14.70;68.20;;;;;;4990973;28;20038;-72
2022/07/26 07:39:52;;;;;;;6.90;2.13;;;14.80;68.20;;;;;;4990343;28;20506;-75
2022/07/26 07:42:19;;;;;;;21.52;3.05;;;14.80;68.30;;;;;;4988220;28;20521;-74
2022/07/26 07:44:46;;;;;;;8.65;1.98;;;14.90;68.50;;;;;;4990769;28;20022;-75
2022/07/26 07:47:13;;;;;;;6.32;3.38;;;14.90;68.70;;;;;;4989025;28;20598;-71
2022/07/26 07:49:39;;;;;;;7.53;2.30;;;14.90;68.70;;;;;;4988912;28;20030;-75
2022/07/26 07:52:06;;;;;;;10.60;2.70;;;14.90;68.90;;;;;;4989205;28;20023;-76
2022/07/26 07:54:32;;;;;;;14.82;2.97;;;15.00;69.10;;;;;;4990381;28;20101;-74
2022/07/26 07:56:59;;;;;;;15.60;4.07;;;15.00;69.10;;;;;;4989142;28;20537;-76
2022/07/26 07:59:26;;;;;;;7.75;2.08;;;15.00;69.10;;;;;;4989732;28;20037;-73
2022/07/26 08:01:52;;;;;;;4.40;1.90;;;15.10;70.10;;;;;;4988073;28;20374;-75
2022/07/26 08:04:19;;;;;;;7.50;1.95;;;15.10;69.50;;;;;;4989296;28;20109;-76
2022/07/26 08:06:45;;;;;;;5.75;2.65;;;15.20;69.30;;;;;;4988586;28;20022;-75
2022/07/26 08:09:12;;;;;;;9.13;2.92;;;15.20;69.50;;;;;;4988413;28;20031;-71
2022/07/26 08:11:38;;;;;;;5.88;2.58;;;15.30;70.00;;;;;;4987895;28;20026;-75
2022/07/26 08:14:05;;;;;;;9.30;2.38;;;15.30;70.10;;;;;;4988927;28;20038;-75
2022/07/26 08:16:31;;;;;;;6.30;2.70;;;15.40;70.10;;;;;;4988317;28;20045;-71
2022/07/26 08:18:58;;;;;;;4.10;3.00;;;15.40;70.00;;;;;;4989544;28;20065;-72
2022/07/26 08:21:25;;;;;;;4.68;2.70;;;15.50;68.90;;;;;;4989239;28;20047;-72
2022/07/26 08:23:51;;;;;;;9.98;6.72;;;15.50;68.60;;;;;;4989735;28;20050;-70
2022/07/26 08:26:18;;;;;;;7.22;3.17;;;15.60;68.30;;;;;;4987842;28;20092;-73
2022/07/26 08:28:45;;;;;;;10.45;3.83;;;15.70;68.40;;;;;;4989623;28;20072;-75
2022/07/26 08:31:11;;;;;;;10.18;3.63;;;15.70;68.30;;;;;;4988764;28;20015;-71
2022/07/26 08:33:38;;;;;;;21.60;5.13;;;15.80;68.20;;;;;;4989916;28;20023;-73
2022/07/26 08:36:04;;;;;;;29.50;5.43;;;15.80;68.30;;;;;;4988722;28;20077;-73
2022/07/26 08:38:31;;;;;;;18.00;4.28;;;15.90;68.40;;;;;;4987860;28;20054;-75
2022/07/26 08:40:58;;;;;;;9.02;3.65;;;16.00;68.40;;;;;;4990320;28;20088;-74
2022/07/26 08:43:25;;;;;;;10.55;4.93;;;16.00;67.60;;;;;;4987842;28;20026;-74
2022/07/26 08:45:59;;;;;;;7.95;4.65;;;16.10;67.00;;;;;;4989102;28;20076;-72
2022/07/26 08:48:26;;;;;;;16.10;5.10;;;16.20;66.20;;;;;;4987427;28;20101;-74
2022/07/26 08:50:54;;;;;;;10.07;6.30;;;16.20;65.90;;;;;;4989551;28;20042;-73
2022/07/26 08:53:22;;;;;;;12.63;5.50;;;16.30;65.50;;;;;;4988436;28;20010;-75
2022/07/26 08:55:48;;;;;;;19.65;6.85;;;16.30;65.50;;;;;;4988833;28;20046;-71
2022/07/26 08:58:15;;;;;;;20.67;6.95;;;16.40;65.50;;;;;;4989166;28;20097;-74
2022/07/26 09:00:43;;;;;;;13.30;5.03;;;16.50;65.50;;;;;;4988114;28;20022;-74
2022/07/26 09:03:26;;;;;;;14.20;5.85;;;16.50;65.50;;;;;;4989365;28;20030;-74
2022/07/26 09:05:53;;;;;;;12.85;6.55;;;16.60;64.70;;;;;;4986363;28;20109;-74
2022/07/26 09:08:28;;;;;;;16.15;6.10;;;16.70;64.40;;;;;;4989450;28;20596;-74
2022/07/26 09:10:55;;;;;;;26.83;6.57;;;16.80;64.10;;;;;;4989251;28;20034;-75
2022/07/26 09:13:24;;;;;;;22.02;6.90;;;16.80;63.70;;;;;;4988135;28;20022;-75
2022/07/26 09:16:10;;;;;;;16.42;6.97;;;16.90;63.90;;;;;;4987574;28;20027;-74
2022/07/26 09:18:36;;;;;;;;;;;17.00;63.90;;;;;;4988156;28;20045;-75
2022/07/26 09:21:03;;;;;;;20.27;7.32;;;17.10;63.50;;;;;;4988794;28;20365;-75
2022/07/26 09:23:40;;;;;;;18.13;7.60;;;17.10;63.00;;;;;;4988266;28;20047;-75
2022/07/26 09:26:06;;;;;;;22.92;8.88;;;17.20;63.60;;;;;;4987353;28;20476;-73
2022/07/26 09:28:33;;;;;;;25.20;9.75;;;17.30;64.20;;;;;;4988359;28;20601;-75
2022/07/26 09:31:04;;;;;;;25.42;8.65;;;17.30;64.60;;;;;;4987118;28;20548;-74
2022/07/26 09:33:47;;;;;;;24.88;8.90;;;17.40;63.70;;;;;;4992215;28;20498;-74
2022/07/26 09:36:15;;;;;;;21.70;7.93;;;17.50;62.50;;;;;;4991550;28;20114;-74
2022/07/26 09:38:44;;;;;;;21.15;7.10;;;17.60;62.10;;;;;;4992345;28;20457;-75
2022/07/26 09:41:29;;;;;;;21.65;7.88;;;17.60;61.90;;;;;;4992286;28;20033;-73
2022/07/26 09:44:05;;;;;;;26.75;9.02;;;17.70;61.80;;;;;;4990059;28;20026;-75
2022/07/26 09:46:34;;;;;;;22.48;9.10;;;17.70;62.10;;;;;;4992772;28;20022;-77
2022/07/26 09:49:18;;;;;;;46.30;12.40;;;17.80;62.20;;;;;;4991528;28;20042;-75
2022/07/26 09:51:47;;;;;;;27.13;9.88;;;17.90;62.00;;;;;;4992487;28;20040;-75
2022/07/26 09:54:28;;;;;;;38.17;11.57;;;18.00;61.80;;;;;;4992775;28;20026;-73
2022/07/26 09:56:55;;;;;;;20.48;9.40;;;18.10;61.30;;;;;;4990672;28;20041;-73
2022/07/26 09:59:23;;;;;;;20.13;9.50;;;18.10;61.60;;;;;;4991950;28;20551;-74
2022/07/26 10:01:52;;;;;;;20.05;8.15;;;18.20;61.70;;;;;;4991125;28;20018;-74
2022/07/26 10:04:20;;;;;;;29.67;9.88;;;18.30;61.90;;;;;;4990864;28;20128;-72
2022/07/26 10:06:47;;;;;;;23.42;9.00;;;18.30;61.80;;;;;;4991369;28;20512;-72
2022/07/26 10:09:14;;;;;;;29.42;9.80;;;18.40;61.50;;;;;;4991067;28;20027;-74
2022/07/26 10:11:55;;;;;;;23.23;10.02;;;18.40;61.20;;;;;;4990614;28;20018;-74
2022/07/26 10:14:39;;;;;;;13.65;8.38;;;18.50;59.80;;;;;;4990542;28;20036;-74
2022/07/26 10:17:28;;;;;;;30.08;9.52;;;18.50;59.80;;;;;;4991918;28;20092;-73
2022/07/26 10:20:09;;;;;;;30.30;8.60;;;18.60;60.20;;;;;;4988680;28;20018;-74
2022/07/26 10:22:45;;;;;;;19.42;9.43;;;18.60;60.60;;;;;;4990469;28;20038;-74
2022/07/26 10:25:17;;;;;;;22.52;9.18;;;18.70;60.80;;;;;;4992484;28;20037;-70
2022/07/26 10:27:45;;;;;;;15.77;7.55;;;18.70;61.00;;;;;;4990195;28;20026;-74
2022/07/26 10:30:17;;;;;;;19.65;8.35;;;18.80;61.20;;;;;;4991865;28;20069;-74
2022/07/26 10:33:01;;;;;;;11.98;7.82;;;18.80;61.50;;;;;;4982341;28;20660;-70
2022/07/26 10:35:42;;;;;;;16.42;7.93;;;18.80;61.80;;;;;;4990508;28;20382;-71
2022/07/26 10:38:28;;;;;;;19.73;7.90;;;18.90;62.40;;;;;;4990730;28;20026;-73
2022/07/26 10:41:04;;;;;;;12.93;6.88;;;19.00;61.60;;;;;;4990751;28;20498;-73
2022/07/26 10:43:32;;;;;;;11.57;5.88;;;19.00;61.50;;;;;;4989498;28;20031;-73
2022/07/26 10:46:17;;;;;;;15.30;5.57;;;19.00;60.40;;;;;;4991066;28;20106;-74
2022/07/26 10:49:07;;;;;;;14.43;6.07;;;19.00;59.40;;;;;;4989812;28;20034;-73
2022/07/26 10:51:35;;;;;;;8.77;5.50;;;19.10;59.40;;;;;;4990792;28;20019;-71
2022/07/26 10:54:12;;;;;;;10.68;6.00;;;19.20;58.90;;;;;;5020501;28;20418;-72
2022/07/26 10:56:39;;;;;;;16.67;6.28;;;19.20;59.00;;;;;;4987856;28;20038;-73
2022/07/26 10:59:06;;;;;;;14.70;5.05;;;19.20;59.70;;;;;;4991437;28;20030;-71
2022/07/26 11:01:40;;;;;;;10.18;4.63;;;19.20;60.00;;;;;;4990205;28;20035;-73
2022/07/26 11:04:20;;;;;;;9.52;5.22;;;19.30;59.50;;;;;;4991359;28;20834;-72
2022/07/26 11:06:47;;;;;;;11.07;6.00;;;19.30;59.80;;;;;;4987483;28;20107;-73
2022/07/26 11:09:13;;;;;;;13.23;6.28;;;19.30;60.90;;;;;;4991296;28;20014;-73
2022/07/26 11:11:40;;;;;;;19.85;6.20;;;19.40;61.90;;;;;;4990059;28;20031;-73
2022/07/26 11:14:15;;;;;;;17.08;7.43;;;19.40;62.90;;;;;;4990776;28;20485;-74
2022/07/26 11:16:47;;;;;;;14.88;6.95;;;19.40;63.30;;;;;;4989512;28;20089;-72
2022/07/26 11:19:24;;;;;;;38.55;8.32;;;19.50;63.50;;;;;;4989663;28;20040;-74
2022/07/26 11:21:59;;;;;;;19.15;5.90;;;19.50;64.00;;;;;;4990885;28;20030;-74
2022/07/26 11:24:26;;;;;;;19.35;6.43;;;19.60;64.10;;;;;;4989970;28;20037;-73
2022/07/26 11:26:53;;;;;;;13.13;5.85;;;19.60;64.50;;;;;;4990622;28;20091;-73
2022/07/26 11:29:33;;;;;;;12.23;5.68;;;19.60;64.90;;;;;;4991001;28;20084;-71
2022/07/26 11:32:00;;;;;;;12.88;5.28;;;19.60;65.30;;;;;;4987230;28;20014;-73
2022/07/26 11:34:31;;;;;;;17.25;6.32;;;19.60;65.50;;;;;;4990578;28;20026;-73
2022/07/26 11:37:00;;;;;;;12.60;5.90;;;19.60;66.70;;;;;;4988966;28;20034;-71
2022/07/26 11:39:32;;;;;;;13.57;6.88;;;19.60;68.10;;;;;;4990154;28;20086;-74
2022/07/26 11:42:07;;;;;;;11.50;5.85;;;19.60;68.30;;;;;;4989328;28;20022;-71
2022/07/26 11:44:34;;;;;;;10.30;4.85;;;19.60;68.30;;;;;;4990333;28;20030;-74
2022/07/26 11:47:20;;;;;;;15.30;6.00;;;19.60;66.30;;;;;;4990762;28;20034;-74
2022/07/26 11:49:48;;;;;;;9.68;4.28;;;19.60;66.70;;;;;;4988940;28;20032;-73
2022/07/26 11:52:16;;;;;;;13.45;4.55;;;19.60;67.70;;;;;;4990878;28;20025;-74
2022/07/26 11:54:45;;;;;;;9.10;4.05;;;19.60;67.60;;;;;;4989415;28;20049;-74
2022/07/26 11:57:12;;;;;;;9.70;4.88;;;19.60;68.70;;;;;;4989897;28;20050;-74
2022/07/26 11:59:39;;;;;;;6.22;3.53;;;19.60;69.60;;;;;;4990054;28;20022;-74
2022/07/26 12:02:08;;;;;;;9.32;3.42;;;19.60;70.80;;;;;;4989191;28;20547;-74
2022/07/26 12:04:39;;;;;;;6.60;3.15;;;19.60;71.60;;;;;;4990394;28;20022;-73
2022/07/26 12:07:11;;;;;;;6.57;3.20;;;19.60;72.00;;;;;;4986275;28;20070;-74
2022/07/26 12:09:52;;;;;;;9.95;4.43;;;19.70;72.20;;;;;;4987254;28;20030;-75
2022/07/26 12:12:23;;;;;;;10.63;3.03;;;19.70;72.40;;;;;;4989006;28;20516;-74
2022/07/26 12:15:04;;;;;;;14.05;2.92;;;19.80;72.60;;;;;;4986828;28;20489;-73
2022/07/26 12:17:31;;;;;;;6.68;3.25;;;19.90;72.10;;;;;;4990159;28;20041;-72
2022/07/26 12:20:17;;;;;;;9.02;3.13;;;19.90;72.00;;;;;;4989332;28;20019;-74
2022/07/26 12:22:54;;;;;;;8.43;4.15;;;20.00;71.80;;;;;;4987178;28;20050;-73
2022/07/26 12:25:26;;;;;;;7.53;3.45;;;20.00;71.40;;;;;;4987772;28;20022;-74
2022/07/26 12:27:53;;;;;;;7.30;3.22;;;20.10;71.30;;;;;;4986715;28;20054;-74
2022/07/26 12:30:20;;;;;;;12.15;3.92;;;20.10;71.60;;;;;;4988120;28;20030;-75
2022/07/26 12:32:50;;;;;;;7.40;2.38;;;20.20;72.00;;;;;;4988189;28;20121;-73
2022/07/26 12:35:28;;;;;;;9.73;3.13;;;20.20;72.60;;;;;;4989866;28;20084;-74
2022/07/26 12:37:54;;;;;;;6.95;2.40;;;20.30;73.10;;;;;;4987794;28;20042;-74
2022/07/26 12:40:23;;;;;;;9.80;2.95;;;20.30;72.30;;;;;;4990206;28;20029;-74
2022/07/26 12:42:49;;;;;;;9.45;2.55;;;20.40;71.50;;;;;;4986430;28;20022;-74
2022/07/26 12:45:18;;;;;;;8.30;2.90;;;20.40;70.80;;;;;;4989482;28;20023;-73
2022/07/26 12:47:48;;;;;;;10.63;3.20;;;20.50;70.50;;;;;;4989731;28;20569;-74
2022/07/26 12:50:17;;;;;;;6.65;2.20;;;20.50;70.50;;;;;;4988179;28;20022;-74